sensor_id;sensor_type;location;lat;lon;timestamp;P1;durP1;ratioP1;P2;durP2;ratioP2
16193;SDS011;8204;53.582;10.080;2023-11-22T00:00:27;4.93;;;4.43;;
16193;SDS011;8204;53.582;10.080;2023-11-22T00:02:52;5.27;;;4.77;;
16193;SDS011;8204;53.582;10.080;2023-11-22T00:05:19;9.77;;;5.43;;
16193;SDS011;8204;53.582;10.080;2023-11-22T00:07:44;7.20;;;5.67;;
16193;SDS011;8204;53.582;10.080;2023-11-22T00:10:10;7.27;;;5.97;;
16193;SDS011;8204;53.582;10.080;2023-11-22T00:12:36;4.97;;;4.53;;
16193;SDS011;8204;53.582;10.080;2023-11-22T00:15:04;6.33;;;5.27;;
16193;SDS011;8204;53.582;10.080;2023-11-22T00:17:34;7.43;;;4.60;;
16193;SDS011;8204;53.582;10.080;2023-11-22T00:20:00;6.87;;;5.77;;
16193;SDS011;8204;53.582;10.080;2023-11-22T00:22:33;7.20;;;4.50;;
16193;SDS011;8204;53.582;10.080;2023-11-22T00:25:00;6.00;;;5.17;;
16193;SDS011;8204;53.582;10.080;2023-11-22T00:27:27;4.70;;;4.30;;
16193;SDS011;8204;53.582;10.080;2023-11-22T00:29:55;5.87;;;5.37;;
16193;SDS011;8204;53.582;10.080;2023-11-22T00:32:21;5.37;;;4.40;;
16193;SDS011;8204;53.582;10.080;2023-11-22T00:34:46;6.80;;;5.23;;
16193;SDS011;8204;53.582;10.080;2023-11-22T00:37:13;12.67;;;5.93;;
16193;SDS011;8204;53.582;10.080;2023-11-22T00:39:38;5.67;;;5.10;;
16193;SDS011;8204;53.582;10.080;2023-11-22T00:42:04;5.23;;;4.37;;
16193;SDS011;8204;53.582;10.080;2023-11-22T00:44:30;5.27;;;4.77;;
16193;SDS011;8204;53.582;10.080;2023-11-22T00:46:57;5.40;;;4.60;;
16193;SDS011;8204;53.582;10.080;2023-11-22T00:49:23;6.30;;;4.63;;
16193;SDS011;8204;53.582;10.080;2023-11-22T00:51:48;5.07;;;4.67;;
16193;SDS011;8204;53.582;10.080;2023-11-22T00:54:15;6.80;;;5.53;;
16193;SDS011;8204;53.582;10.080;2023-11-22T00:56:41;4.90;;;4.50;;
16193;SDS011;8204;53.582;10.080;2023-11-22T00:59:07;8.70;;;5.17;;
16193;SDS011;8204;53.582;10.080;2023-11-22T01:01:33;6.93;;;6.07;;
16193;SDS011;8204;53.582;10.080;2023-11-22T01:04:00;5.40;;;4.90;;
16193;SDS011;8204;53.582;10.080;2023-11-22T01:06:25;5.13;;;4.63;;
16193;SDS011;8204;53.582;10.080;2023-11-22T01:08:51;5.13;;;4.40;;
16193;SDS011;8204;53.582;10.080;2023-11-22T01:11:18;6.27;;;5.13;;
16193;SDS011;8204;53.582;10.080;2023-11-22T01:13:44;5.53;;;5.07;;
16193;SDS011;8204;53.582;10.080;2023-11-22T01:16:10;5.53;;;5.03;;
16193;SDS011;8204;53.582;10.080;2023-11-22T01:18:36;7.57;;;5.90;;
16193;SDS011;8204;53.582;10.080;2023-11-22T01:21:05;6.50;;;5.23;;
16193;SDS011;8204;53.582;10.080;2023-11-22T01:23:31;5.33;;;4.73;;
16193;SDS011;8204;53.582;10.080;2023-11-22T01:25:57;5.03;;;4.50;;
16193;SDS011;8204;53.582;10.080;2023-11-22T01:28:24;5.27;;;4.77;;
16193;SDS011;8204;53.582;10.080;2023-11-22T01:30:49;4.87;;;4.37;;
16193;SDS011;8204;53.582;10.080;2023-11-22T01:33:15;5.23;;;4.50;;
16193;SDS011;8204;53.582;10.080;2023-11-22T01:35:40;5.13;;;4.63;;
16193;SDS011;8204;53.582;10.080;2023-11-22T01:38:06;5.00;;;4.60;;
16193;SDS011;8204;53.582;10.080;2023-11-22T01:40:32;5.97;;;5.47;;
16193;SDS011;8204;53.582;10.080;2023-11-22T01:42:59;5.80;;;4.67;;
16193;SDS011;8204;53.582;10.080;2023-11-22T01:45:25;5.73;;;4.83;;
16193;SDS011;8204;53.582;10.080;2023-11-22T01:47:51;6.40;;;5.70;;
16193;SDS011;8204;53.582;10.080;2023-11-22T01:50:18;4.73;;;4.33;;
16193;SDS011;8204;53.582;10.080;2023-11-22T01:52:44;7.07;;;5.27;;
16193;SDS011;8204;53.582;10.080;2023-11-22T01:55:10;5.20;;;4.70;;
16193;SDS011;8204;53.582;10.080;2023-11-22T01:57:37;5.53;;;5.03;;
16193;SDS011;8204;53.582;10.080;2023-11-22T02:00:03;6.90;;;4.90;;
16193;SDS011;8204;53.582;10.080;2023-11-22T02:02:33;7.47;;;5.37;;
16193;SDS011;8204;53.582;10.080;2023-11-22T02:04:59;7.40;;;5.43;;
16193;SDS011;8204;53.582;10.080;2023-11-22T02:07:27;6.20;;;5.20;;
16193;SDS011;8204;53.582;10.080;2023-11-22T02:09:52;5.07;;;4.60;;
16193;SDS011;8204;53.582;10.080;2023-11-22T02:12:18;4.60;;;4.27;;
16193;SDS011;8204;53.582;10.080;2023-11-22T02:14:45;5.93;;;4.23;;
16193;SDS011;8204;53.582;10.080;2023-11-22T02:17:11;4.70;;;4.10;;
16193;SDS011;8204;53.582;10.080;2023-11-22T02:19:37;4.73;;;4.17;;
16193;SDS011;8204;53.582;10.080;2023-11-22T02:22:02;5.63;;;5.13;;
16193;SDS011;8204;53.582;10.080;2023-11-22T02:24:28;5.43;;;4.93;;
16193;SDS011;8204;53.582;10.080;2023-11-22T02:26:53;7.30;;;5.03;;
16193;SDS011;8204;53.582;10.080;2023-11-22T02:29:19;6.97;;;5.63;;
16193;SDS011;8204;53.582;10.080;2023-11-22T02:31:45;5.07;;;4.33;;
16193;SDS011;8204;53.582;10.080;2023-11-22T02:34:10;7.00;;;5.43;;
16193;SDS011;8204;53.582;10.080;2023-11-22T02:36:36;7.87;;;5.90;;
16193;SDS011;8204;53.582;10.080;2023-11-22T02:39:02;7.03;;;5.87;;
16193;SDS011;8204;53.582;10.080;2023-11-22T02:41:27;4.57;;;4.23;;
16193;SDS011;8204;53.582;10.080;2023-11-22T02:43:55;5.63;;;5.13;;
16193;SDS011;8204;53.582;10.080;2023-11-22T02:46:20;6.83;;;5.83;;
16193;SDS011;8204;53.582;10.080;2023-11-22T02:48:46;6.70;;;4.83;;
16193;SDS011;8204;53.582;10.080;2023-11-22T02:51:12;5.03;;;4.53;;
16193;SDS011;8204;53.582;10.080;2023-11-22T02:53:39;5.30;;;4.80;;
16193;SDS011;8204;53.582;10.080;2023-11-22T02:56:08;6.20;;;5.60;;
16193;SDS011;8204;53.582;10.080;2023-11-22T02:58:34;5.47;;;4.97;;
16193;SDS011;8204;53.582;10.080;2023-11-22T03:01:00;4.53;;;4.13;;
16193;SDS011;8204;53.582;10.080;2023-11-22T03:03:26;7.13;;;6.00;;
16193;SDS011;8204;53.582;10.080;2023-11-22T03:05:52;5.43;;;4.87;;
16193;SDS011;8204;53.582;10.080;2023-11-22T03:08:17;5.37;;;4.87;;
16193;SDS011;8204;53.582;10.080;2023-11-22T03:10:43;6.93;;;6.13;;
16193;SDS011;8204;53.582;10.080;2023-11-22T03:13:08;6.77;;;6.17;;
16193;SDS011;8204;53.582;10.080;2023-11-22T03:15:34;7.23;;;5.73;;
16193;SDS011;8204;53.582;10.080;2023-11-22T03:18:00;6.13;;;5.13;;
16193;SDS011;8204;53.582;10.080;2023-11-22T03:20:27;6.97;;;6.27;;
16193;SDS011;8204;53.582;10.080;2023-11-22T03:22:53;12.67;;;7.60;;
16193;SDS011;8204;53.582;10.080;2023-11-22T03:25:18;14.37;;;10.20;;
16193;SDS011;8204;53.582;10.080;2023-11-22T03:27:44;16.53;;;10.60;;
16193;SDS011;8204;53.582;10.080;2023-11-22T03:30:09;11.03;;;9.37;;
16193;SDS011;8204;53.582;10.080;2023-11-22T03:32:39;11.77;;;9.53;;
16193;SDS011;8204;53.582;10.080;2023-11-22T03:35:06;9.47;;;7.53;;
16193;SDS011;8204;53.582;10.080;2023-11-22T03:37:33;11.67;;;8.10;;
16193;SDS011;8204;53.582;10.080;2023-11-22T03:39:59;11.77;;;8.57;;
16193;SDS011;8204;53.582;10.080;2023-11-22T03:42:25;7.40;;;6.70;;
16193;SDS011;8204;53.582;10.080;2023-11-22T03:44:52;6.80;;;6.03;;
16193;SDS011;8204;53.582;10.080;2023-11-22T03:47:18;8.23;;;7.40;;
16193;SDS011;8204;53.582;10.080;2023-11-22T03:49:44;7.67;;;5.97;;
16193;SDS011;8204;53.582;10.080;2023-11-22T03:52:10;8.17;;;6.93;;
16193;SDS011;8204;53.582;10.080;2023-11-22T03:54:35;6.97;;;5.93;;
16193;SDS011;8204;53.582;10.080;2023-11-22T03:57:01;6.73;;;6.03;;
16193;SDS011;8204;53.582;10.080;2023-11-22T03:59:27;8.73;;;6.20;;
16193;SDS011;8204;53.582;10.080;2023-11-22T04:01:52;9.13;;;6.43;;
16193;SDS011;8204;53.582;10.080;2023-11-22T04:04:19;7.27;;;6.57;;
16193;SDS011;8204;53.582;10.080;2023-11-22T04:06:44;8.73;;;6.90;;
16193;SDS011;8204;53.582;10.080;2023-11-22T04:09:09;6.57;;;5.97;;
16193;SDS011;8204;53.582;10.080;2023-11-22T04:11:37;8.80;;;5.93;;
16193;SDS011;8204;53.582;10.080;2023-11-22T04:14:03;7.13;;;6.33;;
16193;SDS011;8204;53.582;10.080;2023-11-22T04:16:29;12.20;;;7.97;;
16193;SDS011;8204;53.582;10.080;2023-11-22T04:18:55;9.40;;;6.73;;
16193;SDS011;8204;53.582;10.080;2023-11-22T04:21:20;8.27;;;6.83;;
16193;SDS011;8204;53.582;10.080;2023-11-22T04:23:46;7.20;;;5.47;;
16193;SDS011;8204;53.582;10.080;2023-11-22T04:26:13;8.87;;;6.80;;
16193;SDS011;8204;53.582;10.080;2023-11-22T04:28:39;6.57;;;5.77;;
16193;SDS011;8204;53.582;10.080;2023-11-22T04:31:05;8.00;;;6.53;;
16193;SDS011;8204;53.582;10.080;2023-11-22T04:33:33;6.73;;;6.03;;
16193;SDS011;8204;53.582;10.080;2023-11-22T04:35:59;6.93;;;6.27;;
16193;SDS011;8204;53.582;10.080;2023-11-22T04:38:25;7.00;;;5.80;;
16193;SDS011;8204;53.582;10.080;2023-11-22T04:40:51;6.87;;;5.60;;
16193;SDS011;8204;53.582;10.080;2023-11-22T04:43:17;6.27;;;5.50;;
16193;SDS011;8204;53.582;10.080;2023-11-22T04:45:43;7.53;;;5.83;;
16193;SDS011;8204;53.582;10.080;2023-11-22T04:48:08;6.43;;;5.20;;
16193;SDS011;8204;53.582;10.080;2023-11-22T04:50:35;7.97;;;6.47;;
16193;SDS011;8204;53.582;10.080;2023-11-22T04:53:01;7.17;;;6.47;;
16193;SDS011;8204;53.582;10.080;2023-11-22T04:55:27;7.73;;;5.77;;
16193;SDS011;8204;53.582;10.080;2023-11-22T04:57:53;6.20;;;5.60;;
16193;SDS011;8204;53.582;10.080;2023-11-22T05:00:21;11.43;;;5.33;;
16193;SDS011;8204;53.582;10.080;2023-11-22T05:02:48;7.00;;;5.20;;
16193;SDS011;8204;53.582;10.080;2023-11-22T05:05:13;8.10;;;5.23;;
16193;SDS011;8204;53.582;10.080;2023-11-22T05:07:39;6.37;;;5.77;;
16193;SDS011;8204;53.582;10.080;2023-11-22T05:10:05;7.87;;;6.67;;
16193;SDS011;8204;53.582;10.080;2023-11-22T05:12:34;6.00;;;4.73;;
16193;SDS011;8204;53.582;10.080;2023-11-22T05:15:00;6.83;;;6.23;;
16193;SDS011;8204;53.582;10.080;2023-11-22T05:17:27;8.33;;;5.37;;
16193;SDS011;8204;53.582;10.080;2023-11-22T05:19:53;5.97;;;5.37;;
16193;SDS011;8204;53.582;10.080;2023-11-22T05:22:18;5.50;;;5.00;;
16193;SDS011;8204;53.582;10.080;2023-11-22T05:24:43;9.17;;;6.43;;
16193;SDS011;8204;53.582;10.080;2023-11-22T05:27:09;10.77;;;8.03;;
16193;SDS011;8204;53.582;10.080;2023-11-22T05:29:35;9.43;;;8.37;;
16193;SDS011;8204;53.582;10.080;2023-11-22T05:32:02;8.60;;;6.73;;
16193;SDS011;8204;53.582;10.080;2023-11-22T05:34:28;6.27;;;5.17;;
16193;SDS011;8204;53.582;10.080;2023-11-22T05:36:54;6.77;;;6.00;;
16193;SDS011;8204;53.582;10.080;2023-11-22T05:39:20;7.37;;;4.97;;
16193;SDS011;8204;53.582;10.080;2023-11-22T05:41:47;7.93;;;6.50;;
16193;SDS011;8204;53.582;10.080;2023-11-22T05:44:14;5.83;;;5.17;;
16193;SDS011;8204;53.582;10.080;2023-11-22T05:46:39;6.57;;;5.57;;
16193;SDS011;8204;53.582;10.080;2023-11-22T05:49:05;6.90;;;6.30;;
16193;SDS011;8204;53.582;10.080;2023-11-22T05:51:30;5.60;;;5.03;;
16193;SDS011;8204;53.582;10.080;2023-11-22T05:53:57;6.63;;;4.57;;
16193;SDS011;8204;53.582;10.080;2023-11-22T05:56:23;5.60;;;5.07;;
16193;SDS011;8204;53.582;10.080;2023-11-22T05:58:48;7.40;;;6.60;;
16193;SDS011;8204;53.582;10.080;2023-11-22T06:01:14;5.87;;;5.27;;
16193;SDS011;8204;53.582;10.080;2023-11-22T06:03:40;6.30;;;5.70;;
16193;SDS011;8204;53.582;10.080;2023-11-22T06:06:06;6.43;;;5.83;;
16193;SDS011;8204;53.582;10.080;2023-11-22T06:08:32;4.93;;;4.50;;
16193;SDS011;8204;53.582;10.080;2023-11-22T06:10:58;6.57;;;5.37;;
16193;SDS011;8204;53.582;10.080;2023-11-22T06:13:27;7.77;;;5.77;;
16193;SDS011;8204;53.582;10.080;2023-11-22T06:15:54;9.10;;;6.53;;
16193;SDS011;8204;53.582;10.080;2023-11-22T06:18:20;6.97;;;6.03;;
16193;SDS011;8204;53.582;10.080;2023-11-22T06:20:45;8.03;;;7.20;;
16193;SDS011;8204;53.582;10.080;2023-11-22T06:23:12;7.87;;;7.07;;
16193;SDS011;8204;53.582;10.080;2023-11-22T06:25:38;7.10;;;6.47;;
16193;SDS011;8204;53.582;10.080;2023-11-22T06:28:05;8.27;;;7.50;;
16193;SDS011;8204;53.582;10.080;2023-11-22T06:30:30;8.60;;;7.73;;
16193;SDS011;8204;53.582;10.080;2023-11-22T06:32:56;8.43;;;7.57;;
16193;SDS011;8204;53.582;10.080;2023-11-22T06:35:22;15.40;;;9.77;;
16193;SDS011;8204;53.582;10.080;2023-11-22T06:37:48;9.57;;;8.43;;
16193;SDS011;8204;53.582;10.080;2023-11-22T06:40:13;11.03;;;8.53;;
16193;SDS011;8204;53.582;10.080;2023-11-22T06:42:42;7.63;;;6.93;;
16193;SDS011;8204;53.582;10.080;2023-11-22T06:45:08;7.67;;;6.77;;
16193;SDS011;8204;53.582;10.080;2023-11-22T06:47:43;10.00;;;8.90;;
16193;SDS011;8204;53.582;10.080;2023-11-22T06:50:10;6.93;;;6.00;;
16193;SDS011;8204;53.582;10.080;2023-11-22T06:52:36;10.67;;;7.20;;
16193;SDS011;8204;53.582;10.080;2023-11-22T06:55:04;7.07;;;6.47;;
16193;SDS011;8204;53.582;10.080;2023-11-22T06:57:31;14.53;;;9.40;;
16193;SDS011;8204;53.582;10.080;2023-11-22T06:59:57;9.90;;;7.17;;
16193;SDS011;8204;53.582;10.080;2023-11-22T07:02:23;13.17;;;7.83;;
16193;SDS011;8204;53.582;10.080;2023-11-22T07:04:49;8.03;;;6.40;;
16193;SDS011;8204;53.582;10.080;2023-11-22T07:07:15;10.27;;;6.13;;
16193;SDS011;8204;53.582;10.080;2023-11-22T07:09:44;7.13;;;6.43;;
16193;SDS011;8204;53.582;10.080;2023-11-22T07:12:09;8.60;;;6.83;;
16193;SDS011;8204;53.582;10.080;2023-11-22T07:14:36;8.60;;;7.80;;
16193;SDS011;8204;53.582;10.080;2023-11-22T07:17:02;8.57;;;7.70;;
16193;SDS011;8204;53.582;10.080;2023-11-22T07:19:28;9.53;;;8.23;;
16193;SDS011;8204;53.582;10.080;2023-11-22T07:21:54;10.23;;;8.30;;
16193;SDS011;8204;53.582;10.080;2023-11-22T07:24:20;9.07;;;7.73;;
16193;SDS011;8204;53.582;10.080;2023-11-22T07:26:46;8.70;;;7.80;;
16193;SDS011;8204;53.582;10.080;2023-11-22T07:29:12;9.27;;;8.03;;
16193;SDS011;8204;53.582;10.080;2023-11-22T07:31:38;8.07;;;7.27;;
16193;SDS011;8204;53.582;10.080;2023-11-22T07:34:05;10.03;;;8.50;;
16193;SDS011;8204;53.582;10.080;2023-11-22T07:36:36;11.47;;;7.47;;
16193;SDS011;8204;53.582;10.080;2023-11-22T07:39:04;8.40;;;7.17;;
16193;SDS011;8204;53.582;10.080;2023-11-22T07:41:30;11.83;;;8.33;;
16193;SDS011;8204;53.582;10.080;2023-11-22T07:43:56;11.37;;;8.30;;
16193;SDS011;8204;53.582;10.080;2023-11-22T07:46:22;11.47;;;10.13;;
16193;SDS011;8204;53.582;10.080;2023-11-22T07:48:48;10.33;;;9.13;;
16193;SDS011;8204;53.582;10.080;2023-11-22T07:51:14;11.30;;;9.37;;
16193;SDS011;8204;53.582;10.080;2023-11-22T07:53:42;14.17;;;10.43;;
16193;SDS011;8204;53.582;10.080;2023-11-22T07:56:08;13.83;;;10.77;;
16193;SDS011;8204;53.582;10.080;2023-11-22T07:58:35;10.60;;;9.60;;
16193;SDS011;8204;53.582;10.080;2023-11-22T08:01:01;15.23;;;10.87;;
16193;SDS011;8204;53.582;10.080;2023-11-22T08:03:32;11.13;;;9.80;;
16193;SDS011;8204;53.582;10.080;2023-11-22T08:05:58;10.77;;;9.43;;
16193;SDS011;8204;53.582;10.080;2023-11-22T08:08:26;11.63;;;9.90;;
16193;SDS011;8204;53.582;10.080;2023-11-22T08:10:51;11.67;;;9.70;;
16193;SDS011;8204;53.582;10.080;2023-11-22T08:13:19;10.23;;;8.87;;
16193;SDS011;8204;53.582;10.080;2023-11-22T08:15:47;10.97;;;9.87;;
16193;SDS011;8204;53.582;10.080;2023-11-22T08:18:14;10.43;;;8.90;;
16193;SDS011;8204;53.582;10.080;2023-11-22T08:20:42;11.10;;;9.63;;
16193;SDS011;8204;53.582;10.080;2023-11-22T08:23:09;11.47;;;8.53;;
16193;SDS011;8204;53.582;10.080;2023-11-22T08:25:35;10.90;;;8.20;;
16193;SDS011;8204;53.582;10.080;2023-11-22T08:28:00;11.70;;;9.50;;
16193;SDS011;8204;53.582;10.080;2023-11-22T08:30:26;9.93;;;8.90;;
16193;SDS011;8204;53.582;10.080;2023-11-22T08:32:52;10.80;;;9.50;;
16193;SDS011;8204;53.582;10.080;2023-11-22T08:35:19;9.57;;;8.57;;
16193;SDS011;8204;53.582;10.080;2023-11-22T08:37:47;8.63;;;7.83;;
16193;SDS011;8204;53.582;10.080;2023-11-22T08:40:12;9.57;;;8.63;;
16193;SDS011;8204;53.582;10.080;2023-11-22T08:42:40;10.00;;;9.00;;
16193;SDS011;8204;53.582;10.080;2023-11-22T08:45:06;11.27;;;10.17;;
16193;SDS011;8204;53.582;10.080;2023-11-22T08:47:33;9.73;;;8.73;;
16193;SDS011;8204;53.582;10.080;2023-11-22T08:49:59;12.23;;;10.97;;
16193;SDS011;8204;53.582;10.080;2023-11-22T08:52:25;10.77;;;9.70;;
16193;SDS011;8204;53.582;10.080;2023-11-22T08:54:50;17.17;;;10.93;;
16193;SDS011;8204;53.582;10.080;2023-11-22T08:57:18;10.60;;;9.13;;
16193;SDS011;8204;53.582;10.080;2023-11-22T08:59:44;11.53;;;9.33;;
16193;SDS011;8204;53.582;10.080;2023-11-22T09:02:10;9.37;;;8.47;;
16193;SDS011;8204;53.582;10.080;2023-11-22T09:04:37;10.63;;;9.60;;
16193;SDS011;8204;53.582;10.080;2023-11-22T09:07:03;10.30;;;9.33;;
16193;SDS011;8204;53.582;10.080;2023-11-22T09:09:31;11.50;;;9.70;;
16193;SDS011;8204;53.582;10.080;2023-11-22T09:11:58;8.70;;;7.97;;
16193;SDS011;8204;53.582;10.080;2023-11-22T09:14:23;9.23;;;8.30;;
16193;SDS011;8204;53.582;10.080;2023-11-22T09:16:50;9.63;;;8.67;;
16193;SDS011;8204;53.582;10.080;2023-11-22T09:19:23;10.20;;;9.20;;
16193;SDS011;8204;53.582;10.080;2023-11-22T09:21:50;10.47;;;9.47;;
16193;SDS011;8204;53.582;10.080;2023-11-22T09:24:16;10.17;;;9.20;;
16193;SDS011;8204;53.582;10.080;2023-11-22T09:26:42;9.90;;;8.83;;
16193;SDS011;8204;53.582;10.080;2023-11-22T09:29:09;9.87;;;8.87;;
16193;SDS011;8204;53.582;10.080;2023-11-22T09:31:39;9.47;;;8.50;;
16193;SDS011;8204;53.582;10.080;2023-11-22T09:34:07;9.50;;;8.67;;
16193;SDS011;8204;53.582;10.080;2023-11-22T09:36:34;9.70;;;8.77;;
16193;SDS011;8204;53.582;10.080;2023-11-22T09:39:01;12.43;;;8.97;;
16193;SDS011;8204;53.582;10.080;2023-11-22T09:41:28;12.67;;;9.93;;
16193;SDS011;8204;53.582;10.080;2023-11-22T09:43:55;10.07;;;9.00;;
16193;SDS011;8204;53.582;10.080;2023-11-22T09:46:23;11.13;;;9.97;;
16193;SDS011;8204;53.582;10.080;2023-11-22T09:48:50;10.67;;;8.77;;
16193;SDS011;8204;53.582;10.080;2023-11-22T09:51:20;9.67;;;8.73;;
16193;SDS011;8204;53.582;10.080;2023-11-22T09:53:52;11.67;;;10.00;;
16193;SDS011;8204;53.582;10.080;2023-11-22T09:56:21;12.10;;;8.73;;
16193;SDS011;8204;53.582;10.080;2023-11-22T09:58:51;10.13;;;8.53;;
16193;SDS011;8204;53.582;10.080;2023-11-22T10:01:20;9.10;;;8.30;;
16193;SDS011;8204;53.582;10.080;2023-11-22T10:03:47;14.53;;;8.43;;
16193;SDS011;8204;53.582;10.080;2023-11-22T10:06:12;12.43;;;8.70;;
16193;SDS011;8204;53.582;10.080;2023-11-22T10:08:40;17.30;;;9.93;;
16193;SDS011;8204;53.582;10.080;2023-11-22T10:11:06;9.97;;;8.97;;
16193;SDS011;8204;53.582;10.080;2023-11-22T10:13:32;9.53;;;8.63;;
16193;SDS011;8204;53.582;10.080;2023-11-22T10:16:09;10.87;;;9.87;;
16193;SDS011;8204;53.582;10.080;2023-11-22T10:18:42;10.90;;;8.70;;
16193;SDS011;8204;53.582;10.080;2023-11-22T10:21:18;11.93;;;8.30;;
16193;SDS011;8204;53.582;10.080;2023-11-22T10:23:45;11.07;;;8.63;;
16193;SDS011;8204;53.582;10.080;2023-11-22T10:26:12;9.53;;;8.63;;
16193;SDS011;8204;53.582;10.080;2023-11-22T10:28:42;9.60;;;8.63;;
16193;SDS011;8204;53.582;10.080;2023-11-22T10:31:11;12.80;;;8.57;;
16193;SDS011;8204;53.582;10.080;2023-11-22T10:33:39;16.23;;;8.17;;
16193;SDS011;8204;53.582;10.080;2023-11-22T10:36:07;9.63;;;7.00;;
16193;SDS011;8204;53.582;10.080;2023-11-22T10:38:33;8.77;;;7.63;;
16193;SDS011;8204;53.582;10.080;2023-11-22T10:40:59;9.60;;;7.10;;
16193;SDS011;8204;53.582;10.080;2023-11-22T10:43:27;11.77;;;6.97;;
16193;SDS011;8204;53.582;10.080;2023-11-22T10:45:58;9.93;;;7.40;;
16193;SDS011;8204;53.582;10.080;2023-11-22T10:48:24;9.37;;;7.30;;
16193;SDS011;8204;53.582;10.080;2023-11-22T10:50:51;9.23;;;7.63;;
16193;SDS011;8204;53.582;10.080;2023-11-22T10:53:20;10.03;;;7.07;;
16193;SDS011;8204;53.582;10.080;2023-11-22T10:55:50;9.10;;;7.07;;
16193;SDS011;8204;53.582;10.080;2023-11-22T10:58:22;7.93;;;5.80;;
16193;SDS011;8204;53.582;10.080;2023-11-22T11:00:51;7.27;;;6.53;;
16193;SDS011;8204;53.582;10.080;2023-11-22T11:03:20;7.67;;;6.60;;
16193;SDS011;8204;53.582;10.080;2023-11-22T11:05:58;5.90;;;5.40;;
16193;SDS011;8204;53.582;10.080;2023-11-22T11:08:25;8.00;;;6.87;;
16193;SDS011;8204;53.582;10.080;2023-11-22T11:10:52;7.57;;;6.00;;
16193;SDS011;8204;53.582;10.080;2023-11-22T11:13:23;6.70;;;5.67;;
16193;SDS011;8204;53.582;10.080;2023-11-22T11:15:51;8.30;;;7.50;;
16193;SDS011;8204;53.582;10.080;2023-11-22T11:18:19;6.80;;;6.27;;
16193;SDS011;8204;53.582;10.080;2023-11-22T11:20:52;6.50;;;5.93;;
16193;SDS011;8204;53.582;10.080;2023-11-22T11:23:20;7.40;;;6.60;;
16193;SDS011;8204;53.582;10.080;2023-11-22T11:25:48;7.27;;;6.57;;
16193;SDS011;8204;53.582;10.080;2023-11-22T11:28:15;6.67;;;6.13;;
16193;SDS011;8204;53.582;10.080;2023-11-22T11:30:45;9.20;;;6.47;;
16193;SDS011;8204;53.582;10.080;2023-11-22T11:33:12;8.37;;;6.13;;
16193;SDS011;8204;53.582;10.080;2023-11-22T11:35:50;6.83;;;6.23;;
16193;SDS011;8204;53.582;10.080;2023-11-22T11:38:16;8.33;;;7.27;;
16193;SDS011;8204;53.582;10.080;2023-11-22T11:40:45;6.50;;;5.90;;
16193;SDS011;8204;53.582;10.080;2023-11-22T11:43:15;6.60;;;6.00;;
16193;SDS011;8204;53.582;10.080;2023-11-22T11:45:41;7.93;;;7.13;;
16193;SDS011;8204;53.582;10.080;2023-11-22T11:48:16;6.77;;;5.97;;
16193;SDS011;8204;53.582;10.080;2023-11-22T11:50:42;8.37;;;6.97;;
16193;SDS011;8204;53.582;10.080;2023-11-22T11:53:09;8.27;;;7.47;;
16193;SDS011;8204;53.582;10.080;2023-11-22T11:55:38;6.80;;;6.20;;
16193;SDS011;8204;53.582;10.080;2023-11-22T11:58:04;8.63;;;6.70;;
16193;SDS011;8204;53.582;10.080;2023-11-22T12:00:32;12.10;;;6.67;;
16193;SDS011;8204;53.582;10.080;2023-11-22T12:03:00;5.77;;;5.27;;
16193;SDS011;8204;53.582;10.080;2023-11-22T12:05:25;7.03;;;6.33;;
16193;SDS011;8204;53.582;10.080;2023-11-22T12:07:53;6.53;;;5.93;;
16193;SDS011;8204;53.582;10.080;2023-11-22T12:10:19;8.17;;;5.73;;
16193;SDS011;8204;53.582;10.080;2023-11-22T12:12:45;5.40;;;4.97;;
16193;SDS011;8204;53.582;10.080;2023-11-22T12:15:11;6.83;;;4.67;;
16193;SDS011;8204;53.582;10.080;2023-11-22T12:17:38;4.97;;;4.20;;
16193;SDS011;8204;53.582;10.080;2023-11-22T12:20:13;7.77;;;4.93;;
16193;SDS011;8204;53.582;10.080;2023-11-22T12:22:42;4.67;;;4.27;;
16193;SDS011;8204;53.582;10.080;2023-11-22T12:25:10;4.90;;;4.40;;
16193;SDS011;8204;53.582;10.080;2023-11-22T12:27:38;4.40;;;4.03;;
16193;SDS011;8204;53.582;10.080;2023-11-22T12:30:05;4.53;;;3.80;;
16193;SDS011;8204;53.582;10.080;2023-11-22T12:32:32;3.87;;;3.53;;
16193;SDS011;8204;53.582;10.080;2023-11-22T12:34:59;3.70;;;3.33;;
16193;SDS011;8204;53.582;10.080;2023-11-22T12:37:26;3.40;;;3.10;;
16193;SDS011;8204;53.582;10.080;2023-11-22T12:39:52;3.77;;;3.47;;
16193;SDS011;8204;53.582;10.080;2023-11-22T12:42:18;8.70;;;4.17;;
16193;SDS011;8204;53.582;10.080;2023-11-22T12:44:49;4.53;;;4.10;;
16193;SDS011;8204;53.582;10.080;2023-11-22T12:47:33;4.83;;;3.93;;
16193;SDS011;8204;53.582;10.080;2023-11-22T12:50:02;4.70;;;4.07;;
16193;SDS011;8204;53.582;10.080;2023-11-22T12:52:32;7.53;;;4.93;;
16193;SDS011;8204;53.582;10.080;2023-11-22T12:54:58;6.03;;;5.40;;
16193;SDS011;8204;53.582;10.080;2023-11-22T12:57:24;7.00;;;5.50;;
16193;SDS011;8204;53.582;10.080;2023-11-22T12:59:50;9.60;;;5.93;;
16193;SDS011;8204;53.582;10.080;2023-11-22T13:02:16;9.07;;;5.43;;
16193;SDS011;8204;53.582;10.080;2023-11-22T13:04:42;7.90;;;4.93;;
16193;SDS011;8204;53.582;10.080;2023-11-22T13:07:09;5.83;;;4.27;;
16193;SDS011;8204;53.582;10.080;2023-11-22T13:09:34;5.00;;;3.47;;
16193;SDS011;8204;53.582;10.080;2023-11-22T13:12:00;5.00;;;3.20;;
16193;SDS011;8204;53.582;10.080;2023-11-22T13:14:27;3.37;;;3.03;;
16193;SDS011;8204;53.582;10.080;2023-11-22T13:17:00;2.43;;;2.20;;
16193;SDS011;8204;53.582;10.080;2023-11-22T13:19:26;3.13;;;2.77;;
16193;SDS011;8204;53.582;10.080;2023-11-22T13:21:52;2.47;;;2.27;;
16193;SDS011;8204;53.582;10.080;2023-11-22T13:24:18;3.97;;;2.60;;
16193;SDS011;8204;53.582;10.080;2023-11-22T13:26:47;3.47;;;2.40;;
16193;SDS011;8204;53.582;10.080;2023-11-22T13:29:12;3.40;;;2.30;;
16193;SDS011;8204;53.582;10.080;2023-11-22T13:31:38;2.50;;;2.27;;
16193;SDS011;8204;53.582;10.080;2023-11-22T13:34:04;2.47;;;2.27;;
16193;SDS011;8204;53.582;10.080;2023-11-22T13:36:30;3.20;;;2.90;;
16193;SDS011;8204;53.582;10.080;2023-11-22T13:38:58;2.40;;;2.20;;
16193;SDS011;8204;53.582;10.080;2023-11-22T13:41:24;3.17;;;2.40;;
16193;SDS011;8204;53.582;10.080;2023-11-22T13:43:50;3.80;;;2.47;;
16193;SDS011;8204;53.582;10.080;2023-11-22T13:46:16;3.30;;;2.57;;
16193;SDS011;8204;53.582;10.080;2023-11-22T13:48:42;2.70;;;2.47;;
16193;SDS011;8204;53.582;10.080;2023-11-22T13:51:08;2.47;;;2.27;;
16193;SDS011;8204;53.582;10.080;2023-11-22T13:53:36;2.10;;;2.00;;
16193;SDS011;8204;53.582;10.080;2023-11-22T13:56:04;2.80;;;1.97;;
16193;SDS011;8204;53.582;10.080;2023-11-22T13:58:34;1.47;;;1.37;;
16193;SDS011;8204;53.582;10.080;2023-11-22T14:01:01;2.53;;;2.20;;
16193;SDS011;8204;53.582;10.080;2023-11-22T14:03:26;2.00;;;1.83;;
16193;SDS011;8204;53.582;10.080;2023-11-22T14:05:54;1.57;;;1.47;;
16193;SDS011;8204;53.582;10.080;2023-11-22T14:08:19;1.83;;;1.67;;
16193;SDS011;8204;53.582;10.080;2023-11-22T14:10:46;2.03;;;1.83;;
16193;SDS011;8204;53.582;10.080;2023-11-22T14:13:12;1.93;;;1.73;;
16193;SDS011;8204;53.582;10.080;2023-11-22T14:15:37;2.67;;;2.00;;
16193;SDS011;8204;53.582;10.080;2023-11-22T14:18:04;3.17;;;2.47;;
16193;SDS011;8204;53.582;10.080;2023-11-22T14:20:31;1.83;;;1.50;;
16193;SDS011;8204;53.582;10.080;2023-11-22T14:23:00;4.90;;;2.40;;
16193;SDS011;8204;53.582;10.080;2023-11-22T14:25:25;2.33;;;1.90;;
16193;SDS011;8204;53.582;10.080;2023-11-22T14:27:52;2.77;;;2.30;;
16193;SDS011;8204;53.582;10.080;2023-11-22T14:30:20;2.40;;;2.20;;
16193;SDS011;8204;53.582;10.080;2023-11-22T14:32:47;3.40;;;2.10;;
16193;SDS011;8204;53.582;10.080;2023-11-22T14:35:13;2.30;;;2.03;;
16193;SDS011;8204;53.582;10.080;2023-11-22T14:37:39;2.63;;;2.03;;
16193;SDS011;8204;53.582;10.080;2023-11-22T14:40:06;4.10;;;2.10;;
16193;SDS011;8204;53.582;10.080;2023-11-22T14:42:39;7.60;;;3.70;;